createdAt,value
2023-05-14T00:00:42.943Z,84.55
2023-05-14T00:01:42.937Z,84.75
2023-05-14T00:02:43.059Z,84.65
2023-05-14T00:03:42.978Z,84.85
2023-05-14T00:04:42.916Z,84.75
2023-05-14T00:05:42.912Z,85.26
2023-05-14T00:06:42.902Z,85.26
2023-05-14T00:07:42.905Z,85.16
2023-05-14T00:08:42.901Z,85.20
2023-05-14T00:09:42.879Z,84.99
2023-05-14T00:10:42.875Z,84.99
2023-05-14T00:11:42.871Z,85.88
2023-05-14T00:12:42.860Z,85.50
2023-05-14T00:13:42.850Z,85.61
2023-05-14T00:14:42.846Z,86.22
2023-05-14T00:15:42.885Z,86.02
2023-05-14T00:16:42.831Z,86.12
2023-05-14T00:17:42.862Z,86.22
2023-05-14T00:18:42.868Z,85.81
2023-05-14T00:19:42.827Z,85.91
2023-05-14T00:20:42.802Z,86.02
2023-05-14T00:21:42.792Z,86.32
2023-05-14T00:22:42.789Z,86.57
2023-05-14T00:23:42.784Z,86.57
2023-05-14T00:24:42.775Z,86.32
2023-05-14T00:25:42.764Z,86.36
2023-05-14T00:26:42.768Z,86.46
2023-05-14T00:27:42.760Z,86.57
2023-05-14T00:28:42.745Z,87.29
2023-05-14T00:29:42.739Z,87.18
2023-05-14T00:30:42.738Z,86.88
2023-05-14T00:31:42.748Z,86.98
2023-05-14T00:32:42.741Z,86.88
2023-05-14T00:33:42.710Z,86.57
2023-05-14T00:34:42.713Z,87.08
2023-05-14T00:35:42.694Z,87.18
2023-05-14T00:36:42.686Z,86.88
2023-05-14T00:37:42.679Z,86.98
2023-05-14T00:38:42.702Z,86.67
2023-05-14T00:39:42.665Z,86.77
2023-05-14T00:40:42.658Z,86.57
2023-05-14T00:41:42.682Z,86.46
2023-05-14T00:42:42.645Z,86.36
2023-05-14T00:43:42.637Z,86.71
2023-05-14T00:44:42.626Z,86.81
2023-05-14T00:45:42.616Z,86.77
2023-05-14T00:46:42.637Z,87.08
2023-05-14T00:47:42.630Z,86.61
2023-05-14T00:48:42.601Z,87.32
2023-05-14T00:49:42.590Z,86.91
2023-05-14T00:50:42.584Z,87.12
2023-05-14T00:51:42.578Z,86.71
2023-05-14T00:52:42.571Z,87.32
2023-05-14T00:53:42.560Z,87.43
2023-05-14T00:54:42.555Z,86.36
2023-05-14T00:55:42.556Z,86.20
2023-05-14T00:56:42.555Z,86.67
2023-05-14T00:57:42.533Z,86.51
2023-05-14T00:58:42.523Z,86.51
2023-05-14T00:59:42.527Z,87.53
2023-05-14T01:00:42.553Z,87.38
2023-05-14T01:01:42.502Z,88.04
2023-05-14T01:02:42.550Z,87.63
2023-05-14T01:03:42.666Z,87.90
2023-05-14T01:04:42.483Z,88.24
2023-05-14T01:05:42.469Z,88.04
2023-05-14T01:06:42.467Z,86.91
2023-05-14T01:07:42.456Z,87.32
2023-05-14T01:08:42.459Z,87.63
2023-05-14T01:09:42.448Z,87.53
2023-05-14T01:10:42.465Z,87.73
2023-05-14T01:11:42.433Z,87.63
2023-05-14T01:12:42.421Z,87.94
2023-05-14T01:13:42.417Z,87.84
2023-05-14T01:14:42.403Z,87.94
2023-05-14T01:15:42.421Z,88.14
2023-05-14T01:16:42.400Z,88.04
2023-05-14T01:17:42.453Z,87.94
2023-05-14T01:18:42.381Z,86.77
2023-05-14T01:19:42.367Z,87.18
2023-05-14T01:20:42.386Z,87.38
2023-05-14T01:21:42.357Z,87.53
2023-05-14T01:22:42.359Z,87.43
2023-05-14T01:23:42.340Z,87.43
2023-05-14T01:24:42.326Z,86.81
2023-05-14T01:25:42.323Z,86.91
2023-05-14T01:26:42.313Z,88.14
2023-05-14T01:27:42.308Z,87.02
2023-05-14T01:28:42.312Z,87.12
2023-05-14T01:29:42.292Z,87.73
2023-05-14T01:30:42.289Z,87.77
2023-05-14T01:31:42.322Z,87.88
2023-05-14T01:32:42.275Z,88.29
2023-05-14T01:33:42.266Z,87.98
2023-05-14T01:36:44.375Z,88.18
2023-05-14T01:37:24.936Z,87.57
2023-05-14T01:39:17.841Z,88.08
2023-05-14T01:40:17.828Z,88.18
2023-05-14T01:42:21.802Z,88.18
2023-05-14T01:43:21.805Z,88.49
2023-05-14T01:45:25.779Z,88.39
2023-05-14T01:46:25.774Z,88.74
2023-05-14T01:48:29.720Z,88.84
2023-05-14T01:49:29.701Z,88.84
2023-05-14T01:51:33.716Z,88.74
2023-05-14T01:52:33.699Z,89.31
2023-05-14T01:54:37.673Z,89.15
2023-05-14T01:55:37.684Z,89.36
2023-05-14T01:57:41.629Z,89.36
2023-05-14T01:58:41.614Z,89.11
2023-05-14T02:00:45.643Z,89.04
2023-05-14T02:01:45.647Z,89.25
2023-05-14T02:03:49.628Z,89.36
2023-05-14T02:04:49.576Z,89.36
2023-05-14T02:06:53.546Z,89.60
2023-05-14T02:07:53.537Z,89.50
2023-05-14T02:09:46.436Z,89.56
2023-05-14T02:10:46.416Z,88.74
2023-05-14T02:12:50.877Z,88.23
2023-05-14T02:13:50.470Z,88.23
2023-05-14T02:15:54.438Z,89.15
2023-05-14T02:16:54.400Z,89.25
2023-05-14T02:18:58.418Z,89.36
2023-05-14T02:19:58.391Z,89.15
2023-05-14T02:22:02.351Z,89.76
2023-05-14T02:23:02.347Z,90.07
2023-05-14T02:25:06.320Z,90.17
2023-05-14T02:26:06.305Z,89.97
2023-05-14T02:28:10.291Z,89.76
2023-05-14T02:29:10.321Z,89.76
2023-05-14T02:31:14.285Z,89.76
2023-05-14T02:32:14.282Z,89.87
2023-05-14T02:34:18.199Z,89.45
2023-05-14T02:35:18.194Z,89.36
2023-05-14T02:37:22.196Z,88.33
2023-05-14T02:38:22.152Z,88.33
2023-05-14T02:40:15.069Z,87.71
2023-05-14T02:41:15.053Z,87.98
2023-05-14T02:43:19.016Z,87.88
2023-05-14T02:44:19.007Z,88.08
2023-05-14T02:46:23.017Z,87.98
2023-05-14T02:47:23.026Z,88.08
2023-05-14T02:49:15.886Z,88.08
2023-05-14T02:50:15.864Z,88.08
2023-05-14T02:52:19.839Z,88.08
2023-05-14T02:53:19.831Z,88.08
2023-05-14T02:55:23.806Z,87.94
2023-05-14T02:56:23.801Z,88.04
2023-05-14T02:58:28.496Z,87.77
2023-05-14T02:59:27.749Z,87.73
2023-05-14T03:01:31.724Z,87.37
2023-05-14T03:02:31.769Z,87.32
2023-05-14T03:04:35.684Z,87.73
2023-05-14T03:05:35.671Z,87.12
2023-05-14T03:07:39.648Z,88.04
2023-05-14T03:08:39.628Z,88.04
2023-05-14T03:10:43.628Z,87.84
2023-05-14T03:11:43.613Z,88.20
2023-05-14T03:13:47.587Z,88.24
2023-05-14T03:14:47.562Z,87.90
2023-05-14T03:16:51.598Z,87.79
2023-05-14T03:17:51.567Z,87.90
2023-05-14T03:19:44.433Z,88.00
2023-05-14T03:20:44.406Z,87.49
2023-05-14T03:22:48.433Z,87.59
2023-05-14T03:23:48.377Z,87.70
2023-05-14T03:25:52.379Z,87.59
2023-05-14T03:26:52.369Z,88.00
2023-05-14T03:28:56.343Z,87.70
2023-05-14T03:29:56.327Z,86.73
2023-05-14T03:32:00.324Z,87.38
2023-05-14T03:33:00.356Z,87.38
2023-05-14T03:35:04.275Z,87.35
2023-05-14T03:36:04.263Z,87.35
2023-05-14T03:38:08.265Z,87.59
2023-05-14T03:39:08.253Z,86.36
2023-05-14T03:41:12.197Z,86.94
2023-05-14T03:42:12.180Z,87.14
2023-05-14T03:44:16.158Z,86.73
2023-05-14T03:45:16.147Z,86.94
2023-05-14T03:47:20.117Z,86.63
2023-05-14T03:48:20.207Z,87.24
2023-05-14T03:50:13.015Z,86.83
2023-05-14T03:51:12.994Z,86.83
2023-05-14T03:53:16.974Z,87.41
2023-05-14T03:54:17.024Z,88.02
2023-05-14T03:56:20.931Z,88.12
2023-05-14T03:57:20.908Z,87.10
2023-05-14T03:59:13.814Z,87.71
2023-05-14T04:00:13.795Z,87.61
2023-05-14T04:02:17.846Z,88.02
2023-05-14T04:03:17.848Z,87.51
2023-05-14T04:05:21.749Z,86.24
2023-05-14T04:06:21.720Z,87.00
2023-05-14T04:08:25.697Z,86.44
2023-05-14T04:09:25.707Z,86.44
2023-05-14T04:11:29.656Z,86.35
2023-05-14T04:12:29.642Z,86.14
2023-05-14T04:14:33.619Z,85.38
2023-05-14T04:15:33.604Z,85.38
2023-05-14T04:17:37.635Z,84.74
2023-05-14T04:18:37.597Z,84.42
2023-05-14T04:20:41.534Z,83.87
2023-05-14T04:21:41.534Z,82.55
2023-05-14T04:23:45.502Z,80.98
2023-05-14T04:24:45.486Z,80.33
2023-05-14T04:26:49.465Z,79.48
2023-05-14T04:27:49.448Z,75.95
2023-05-14T04:29:42.351Z,73.88
2023-05-14T04:30:42.329Z,70.78
2023-05-14T04:32:46.318Z,69.70
2023-05-14T04:33:46.301Z,70.01
2023-05-14T04:35:50.282Z,67.19
2023-05-14T04:36:50.261Z,69.97
2023-05-14T04:38:54.243Z,74.55
2023-05-14T04:39:54.212Z,67.02
2023-05-14T04:41:58.189Z,67.32
2023-05-14T04:42:58.177Z,68.85
2023-05-14T04:45:02.161Z,67.83
2023-05-14T04:46:02.228Z,68.65
2023-05-14T04:48:06.157Z,68.04
2023-05-14T04:49:06.106Z,67.22
2023-05-14T04:51:10.077Z,68.65
2023-05-14T04:52:10.071Z,68.44
2023-05-14T04:54:14.059Z,67.83
2023-05-14T04:55:14.025Z,68.13
2023-05-14T04:57:17.996Z,67.02
2023-05-14T04:58:17.979Z,67.12
2023-05-14T05:00:10.891Z,66.58
2023-05-14T05:01:10.888Z,64.11
2023-05-14T05:03:14.993Z,60.86
2023-05-14T05:04:15.026Z,59.89
2023-05-14T05:06:18.829Z,58.16
2023-05-14T05:07:18.807Z,57.65
2023-05-14T05:09:22.788Z,54.28
2023-05-14T05:10:22.984Z,54.26
2023-05-14T05:12:26.747Z,52.89
2023-05-14T05:13:26.737Z,53.80
2023-05-14T05:15:30.708Z,52.36
2023-05-14T05:16:30.725Z,52.61
2023-05-14T05:18:34.781Z,51.13
2023-05-14T05:19:43.112Z,50.45
2023-05-14T05:21:38.635Z,49.84
2023-05-14T05:22:38.622Z,50.32
2023-05-14T05:24:42.604Z,49.90
2023-05-14T05:25:42.600Z,49.09
2023-05-14T05:27:46.574Z,48.03
2023-05-14T05:28:46.562Z,47.66
2023-05-14T05:30:50.542Z,49.64
2023-05-14T05:31:50.563Z,50.47
2023-05-14T05:33:54.507Z,50.57
2023-05-14T05:34:54.498Z,49.82
2023-05-14T05:36:58.590Z,50.27
2023-05-14T05:38:00.470Z,49.35
2023-05-14T05:39:51.495Z,47.64
2023-05-14T05:40:51.472Z,45.87
2023-05-14T05:42:55.454Z,48.30
2023-05-14T05:43:55.440Z,50.98
2023-05-14T05:45:59.438Z,51.03
2023-05-14T05:46:59.533Z,51.71
2023-05-14T05:49:03.394Z,51.15
2023-05-14T05:50:03.389Z,50.30
2023-05-14T05:52:07.361Z,50.47
2023-05-14T05:53:07.348Z,51.63
2023-05-14T05:55:11.356Z,51.63
2023-05-14T05:56:11.319Z,51.73
2023-05-14T05:58:15.314Z,52.72
2023-05-14T05:59:15.296Z,53.25
2023-05-14T06:00:15.322Z,54.16
2023-05-14T06:01:15.294Z,53.55
2023-05-14T06:02:15.361Z,53.45
2023-05-14T06:03:15.319Z,54.05
2023-05-14T06:04:15.276Z,54.28
2023-05-14T06:05:15.309Z,53.67
2023-05-14T06:06:15.269Z,54.00
2023-05-14T06:07:15.263Z,54.31
2023-05-14T06:08:15.263Z,54.21
2023-05-14T06:09:15.256Z,53.90
2023-05-14T06:10:15.261Z,54.71
2023-05-14T06:11:15.252Z,55.32
2023-05-14T06:12:15.247Z,54.61
2023-05-14T06:13:15.263Z,55.22
2023-05-14T06:14:15.237Z,53.88
2023-05-14T06:15:15.235Z,53.50
2023-05-14T06:16:15.247Z,51.73
2023-05-14T06:17:15.223Z,51.20
2023-05-14T06:18:15.225Z,49.39
2023-05-14T06:19:15.253Z,49.72
2023-05-14T06:20:15.213Z,51.25
2023-05-14T06:21:15.211Z,50.75
2023-05-14T06:22:15.214Z,50.87
2023-05-14T06:23:15.200Z,50.57
2023-05-14T06:24:15.207Z,51.68
2023-05-14T06:25:15.196Z,51.68
2023-05-14T06:26:15.209Z,52.31
2023-05-14T06:27:15.215Z,53.12
2023-05-14T06:28:15.183Z,53.12
2023-05-14T06:29:15.200Z,51.78
2023-05-14T06:30:15.180Z,51.10
2023-05-14T06:31:15.190Z,51.12
2023-05-14T06:32:15.208Z,52.34
2023-05-14T06:33:15.165Z,51.23
2023-05-14T06:34:15.168Z,52.46
2023-05-14T06:35:15.162Z,53.40
2023-05-14T06:36:15.172Z,52.28
2023-05-14T06:37:15.165Z,54.08
2023-05-14T06:38:15.154Z,52.59
2023-05-14T06:39:15.170Z,54.71
2023-05-14T06:40:15.142Z,53.90
2023-05-14T06:41:15.142Z,54.31
2023-05-14T06:42:15.134Z,53.47
2023-05-14T06:43:15.146Z,53.70
2023-05-14T06:44:15.128Z,55.69
2023-05-14T06:45:15.126Z,54.38
2023-05-14T06:46:15.123Z,53.40
2023-05-14T06:47:15.123Z,53.50
2023-05-14T06:48:15.228Z,54.31
2023-05-14T06:49:15.260Z,55.15
2023-05-14T06:50:15.104Z,54.03
2023-05-14T06:51:15.103Z,54.23
2023-05-14T06:52:15.102Z,54.74
2023-05-14T06:53:15.095Z,54.74
2023-05-14T06:54:15.090Z,54.74
2023-05-14T06:55:15.089Z,55.15
2023-05-14T06:56:15.082Z,54.03
2023-05-14T06:57:15.084Z,55.15
2023-05-14T06:58:15.075Z,55.44
2023-05-14T06:59:15.081Z,55.52
2023-05-14T07:00:15.066Z,54.21
2023-05-14T07:01:15.102Z,54.11
2023-05-14T07:02:15.057Z,53.27
2023-05-14T07:03:15.057Z,53.98
2023-05-14T07:04:15.089Z,53.47
2023-05-14T07:05:15.047Z,54.31
2023-05-14T07:06:15.039Z,53.50
2023-05-14T07:07:15.058Z,53.30
2023-05-14T07:08:15.041Z,54.71
2023-05-14T07:09:15.030Z,55.32
2023-05-14T07:10:15.032Z,54.58
2023-05-14T07:11:15.047Z,55.49
2023-05-14T07:12:15.022Z,54.18
2023-05-14T07:13:15.022Z,54.28
2023-05-14T07:14:15.014Z,53.88
2023-05-14T07:15:15.019Z,54.00
2023-05-14T07:16:15.054Z,53.47
2023-05-14T07:17:15.035Z,53.40
2023-05-14T07:18:15.022Z,54.21
2023-05-14T07:19:15.143Z,54.49
2023-05-14T07:20:14.985Z,53.38
2023-05-14T07:21:14.994Z,53.38
2023-05-14T07:22:14.980Z,53.17
2023-05-14T07:23:14.974Z,53.58
2023-05-14T07:24:14.968Z,53.90
2023-05-14T07:25:15.081Z,53.58
2023-05-14T07:26:14.961Z,54.00
2023-05-14T07:27:14.971Z,53.50
2023-05-14T07:28:14.958Z,53.80
2023-05-14T07:29:14.951Z,54.31
2023-05-14T07:30:14.952Z,54.61
2023-05-14T07:31:14.970Z,54.91
2023-05-14T07:32:15.747Z,54.49
2023-05-14T07:33:14.939Z,54.69
2023-05-14T07:34:14.922Z,55.80
2023-05-14T07:35:14.923Z,55.36
2023-05-14T07:36:14.917Z,55.07
2023-05-14T07:37:14.911Z,54.05
2023-05-14T07:38:14.910Z,53.96
2023-05-14T07:39:14.905Z,53.85
2023-05-14T07:40:14.900Z,54.46
2023-05-14T07:41:14.897Z,54.25
2023-05-14T07:42:24.676Z,54.56
2023-05-14T07:43:14.929Z,54.23
2023-05-14T07:44:14.888Z,53.22
2023-05-14T07:45:14.877Z,53.32
2023-05-14T07:46:14.895Z,54.51
2023-05-14T07:47:14.899Z,54.61
2023-05-14T07:48:14.967Z,54.68
2023-05-14T07:49:14.873Z,53.90
2023-05-14T07:50:14.858Z,53.20
2023-05-14T07:51:14.859Z,53.80
2023-05-14T07:52:14.853Z,55.29
2023-05-14T07:53:14.847Z,54.05
2023-05-14T07:54:14.848Z,52.94
2023-05-14T07:55:14.841Z,50.50
2023-05-14T07:56:14.838Z,51.13
2023-05-14T07:57:14.837Z,53.14
2023-05-14T07:58:14.856Z,52.34
2023-05-14T07:59:14.829Z,52.34
2023-05-14T08:00:14.819Z,52.54
2023-05-14T08:01:14.829Z,52.51
2023-05-14T08:02:14.832Z,52.39
2023-05-14T08:03:15.025Z,50.57
2023-05-14T08:04:14.844Z,50.57
2023-05-14T08:05:14.814Z,50.68
2023-05-14T08:06:14.801Z,50.65
2023-05-14T08:07:14.809Z,50.65
2023-05-14T08:08:14.941Z,49.75
2023-05-14T08:09:14.795Z,50.81
2023-05-14T08:10:14.806Z,50.51
2023-05-14T08:11:14.818Z,49.19
2023-05-14T08:12:14.786Z,48.99
2023-05-14T08:13:14.787Z,49.40
2023-05-14T08:14:14.773Z,49.22
2023-05-14T08:15:14.777Z,47.61
2023-05-14T08:16:14.855Z,48.01
2023-05-14T08:17:14.883Z,47.94
2023-05-14T08:18:14.770Z,49.87
2023-05-14T08:19:14.891Z,48.74
2023-05-14T08:20:14.770Z,48.74
2023-05-14T08:21:14.784Z,48.44
2023-05-14T08:22:14.759Z,49.27
2023-05-14T08:23:14.758Z,48.86
2023-05-14T08:24:14.752Z,48.66
2023-05-14T08:25:14.760Z,49.85
2023-05-14T08:26:14.749Z,49.55
2023-05-14T08:27:14.787Z,49.65
2023-05-14T08:28:14.743Z,50.02
2023-05-14T08:29:16.443Z,50.13
2023-05-14T08:30:14.743Z,51.03
2023-05-14T08:31:14.868Z,50.63
2023-05-14T08:32:22.796Z,50.51
2023-05-14T08:33:14.732Z,51.41
2023-05-14T08:34:14.728Z,50.93
2023-05-14T08:35:14.731Z,50.71
2023-05-14T08:36:14.727Z,50.60
2023-05-14T08:37:14.718Z,51.29
2023-05-14T08:38:14.734Z,51.79
2023-05-14T08:39:14.717Z,51.09
2023-05-14T08:40:14.726Z,50.78
2023-05-14T08:41:14.714Z,49.68
2023-05-14T08:42:14.713Z,49.55
2023-05-14T08:43:14.706Z,50.89
2023-05-14T08:44:14.707Z,50.38
2023-05-14T08:45:14.699Z,50.38
2023-05-14T08:46:14.700Z,49.37
2023-05-14T08:47:14.699Z,50.48
2023-05-14T08:48:14.830Z,50.35
2023-05-14T08:49:14.693Z,50.53
2023-05-14T08:50:14.686Z,48.83
2023-05-14T08:51:14.686Z,50.01
2023-05-14T08:52:14.694Z,47.19
2023-05-14T08:53:14.680Z,47.82
2023-05-14T08:54:14.691Z,48.52
2023-05-14T08:55:14.678Z,48.55
2023-05-14T08:56:14.681Z,49.05
2023-05-14T08:57:14.686Z,50.86
2023-05-14T08:58:14.671Z,48.83
2023-05-14T08:59:14.672Z,48.44
2023-05-14T09:00:14.672Z,48.25
2023-05-14T09:01:14.684Z,48.65
2023-05-14T09:02:14.757Z,48.72
2023-05-14T09:03:14.711Z,47.82
2023-05-14T09:04:14.680Z,48.00
2023-05-14T09:05:14.656Z,47.58
2023-05-14T09:06:14.656Z,47.15
2023-05-14T09:07:14.653Z,46.97
2023-05-14T09:08:14.651Z,48.28
2023-05-14T09:09:14.655Z,47.67
2023-05-14T09:10:14.652Z,46.67
2023-05-14T09:11:14.654Z,45.87
2023-05-14T09:12:14.651Z,43.84
2023-05-14T09:13:14.647Z,43.40
2023-05-14T09:14:14.642Z,43.90
2023-05-14T09:15:14.658Z,44.79
2023-05-14T09:16:14.669Z,45.17
2023-05-14T09:17:14.643Z,44.87
2023-05-14T09:18:14.639Z,45.06
2023-05-14T09:19:14.662Z,43.06
2023-05-14T09:20:14.638Z,43.76
2023-05-14T09:21:14.629Z,44.87
2023-05-14T09:22:14.633Z,44.96
2023-05-14T09:23:14.631Z,44.46
2023-05-14T09:24:14.627Z,44.54
2023-05-14T09:25:14.652Z,44.12
2023-05-14T09:26:14.625Z,43.72
2023-05-14T09:27:14.626Z,42.66
2023-05-14T09:28:14.622Z,44.48
2023-05-14T09:29:14.624Z,44.89
2023-05-14T09:30:14.653Z,45.57
2023-05-14T09:31:14.654Z,44.54
2023-05-14T09:32:14.617Z,42.66
2023-05-14T09:33:14.615Z,41.33
2023-05-14T09:34:14.613Z,42.74
2023-05-14T09:35:14.618Z,42.91
2023-05-14T09:36:14.608Z,41.49
2023-05-14T09:37:14.608Z,40.23
2023-05-14T09:38:14.608Z,41.43
2023-05-14T09:39:14.616Z,42.21
2023-05-14T09:40:14.630Z,44.00
2023-05-14T09:41:14.602Z,44.08
2023-05-14T09:42:14.627Z,40.37
2023-05-14T09:43:14.600Z,41.38
2023-05-14T09:44:14.600Z,42.38
2023-05-14T09:45:14.597Z,42.69
2023-05-14T09:46:14.603Z,42.38
2023-05-14T09:47:14.655Z,41.27
2023-05-14T09:48:14.616Z,42.02
2023-05-14T09:49:14.590Z,42.11
2023-05-14T09:50:14.595Z,42.61
2023-05-14T09:51:14.596Z,43.02
2023-05-14T09:52:14.593Z,44.30
2023-05-14T09:53:14.585Z,42.02
2023-05-14T09:54:14.590Z,41.82
2023-05-14T09:55:14.604Z,41.51
2023-05-14T09:56:14.580Z,41.55
2023-05-14T09:57:14.582Z,43.16
2023-05-14T09:58:14.587Z,41.53
2023-05-14T09:59:14.576Z,41.82
2023-05-14T10:00:14.576Z,42.32
2023-05-14T10:01:14.581Z,42.11
2023-05-14T10:02:14.620Z,42.61
2023-05-14T10:03:16.008Z,43.40
2023-05-14T10:04:14.622Z,41.69
2023-05-14T10:05:14.564Z,40.99
2023-05-14T10:06:14.612Z,40.91
2023-05-14T10:07:14.635Z,41.13
2023-05-14T10:08:14.687Z,41.83
2023-05-14T10:09:14.596Z,39.40
2023-05-14T10:10:14.637Z,39.31
2023-05-14T10:11:14.602Z,39.81
2023-05-14T10:12:14.560Z,38.70
2023-05-14T10:13:14.563Z,39.31
2023-05-14T10:14:14.568Z,40.13
2023-05-14T10:15:14.546Z,39.53
2023-05-14T10:16:14.545Z,41.01
2023-05-14T10:17:14.589Z,40.19
2023-05-14T10:18:14.613Z,39.29
2023-05-14T10:19:14.585Z,41.19
2023-05-14T10:20:14.544Z,38.79
2023-05-14T10:21:14.538Z,38.40
2023-05-14T10:22:14.562Z,38.68
2023-05-14T10:23:14.530Z,39.29
2023-05-14T10:24:14.634Z,38.47
2023-05-14T10:25:14.527Z,38.18
2023-05-14T10:26:14.525Z,39.29
2023-05-14T10:27:14.531Z,40.49
2023-05-14T10:28:14.521Z,39.07
2023-05-14T10:29:14.517Z,38.27
2023-05-14T10:30:14.520Z,38.17
2023-05-14T10:31:14.583Z,38.25
2023-05-14T10:32:14.512Z,38.35
2023-05-14T10:33:14.614Z,37.95
2023-05-14T10:34:14.511Z,39.03
2023-05-14T10:35:14.506Z,38.73
2023-05-14T10:36:14.512Z,38.23
2023-05-14T10:37:14.501Z,37.03
2023-05-14T10:38:14.522Z,37.73
2023-05-14T10:39:14.496Z,36.65
2023-05-14T10:40:14.497Z,38.03
2023-05-14T10:41:14.489Z,38.05
2023-05-14T10:42:14.496Z,37.45
2023-05-14T10:43:14.488Z,38.43
2023-05-14T10:44:14.502Z,38.33
2023-05-14T10:45:14.483Z,38.11
2023-05-14T10:46:14.604Z,36.11
2023-05-14T10:47:14.480Z,36.91
2023-05-14T10:48:14.493Z,37.01
2023-05-14T10:49:14.480Z,37.43
2023-05-14T10:50:14.473Z,37.43
2023-05-14T10:51:14.540Z,37.83
2023-05-14T10:52:14.527Z,36.53
2023-05-14T10:53:14.476Z,36.13
2023-05-14T10:54:14.697Z,36.53
2023-05-14T10:55:14.484Z,37.03
2023-05-14T10:56:14.494Z,37.23
2023-05-14T10:57:14.466Z,36.05
2023-05-14T10:58:14.462Z,37.37
2023-05-14T10:59:14.461Z,38.57
2023-05-14T11:00:14.489Z,36.96
2023-05-14T11:01:14.506Z,37.37
2023-05-14T11:02:14.615Z,37.46
2023-05-14T11:03:14.511Z,37.27
2023-05-14T11:04:14.480Z,38.49
2023-05-14T11:05:14.470Z,37.87
2023-05-14T11:06:14.453Z,38.17
2023-05-14T11:07:14.493Z,36.87
2023-05-14T11:08:14.458Z,39.29
2023-05-14T11:09:14.485Z,37.57
2023-05-14T11:10:14.465Z,38.79
2023-05-14T11:11:14.569Z,38.59
2023-05-14T11:12:14.438Z,39.01
2023-05-14T11:13:14.436Z,39.31
2023-05-14T11:14:14.436Z,38.10
2023-05-14T11:15:14.449Z,39.31
2023-05-14T11:16:23.366Z,38.10
2023-05-14T11:17:14.508Z,38.12
2023-05-14T11:18:14.471Z,38.62
2023-05-14T11:19:14.449Z,39.83
2023-05-14T11:20:14.446Z,38.72
2023-05-14T11:21:14.448Z,38.32
2023-05-14T11:22:14.422Z,39.83
2023-05-14T11:23:14.422Z,39.73
2023-05-14T11:24:14.415Z,38.22
2023-05-14T11:25:14.548Z,38.53
2023-05-14T11:26:14.728Z,38.72
2023-05-14T11:27:14.407Z,38.53
2023-05-14T11:28:14.410Z,38.74
2023-05-14T11:29:14.405Z,39.73
2023-05-14T11:30:14.398Z,40.83
2023-05-14T11:31:14.409Z,40.35
2023-05-14T11:32:14.398Z,39.32
2023-05-14T11:33:14.459Z,41.45
2023-05-14T11:34:14.394Z,39.14
2023-05-14T11:35:14.403Z,41.25
2023-05-14T11:36:14.389Z,39.45
2023-05-14T11:37:14.418Z,39.84
2023-05-14T11:38:14.386Z,39.75
2023-05-14T11:39:14.383Z,39.53
2023-05-14T11:40:14.496Z,39.32
2023-05-14T11:41:14.377Z,41.01
2023-05-14T11:42:14.378Z,40.31
2023-05-14T11:43:14.374Z,39.21
2023-05-14T11:44:14.370Z,39.62
2023-05-14T11:45:14.418Z,39.51
2023-05-14T11:46:14.397Z,39.51
2023-05-14T11:47:14.366Z,39.31
2023-05-14T11:48:14.436Z,40.29
2023-05-14T11:49:14.361Z,41.19
2023-05-14T11:50:14.364Z,38.87
2023-05-14T11:51:14.414Z,39.07
2023-05-14T11:52:14.363Z,39.37
2023-05-14T11:53:14.352Z,39.17
2023-05-14T11:54:14.349Z,39.47
2023-05-14T11:55:14.354Z,39.49
2023-05-14T11:56:14.355Z,39.67
2023-05-14T11:57:14.356Z,39.29
2023-05-14T11:58:14.357Z,39.71
2023-05-14T11:59:14.344Z,40.51
2023-05-14T12:00:14.355Z,39.71
2023-05-14T12:01:14.372Z,40.19
2023-05-14T12:02:14.361Z,39.89
2023-05-14T12:03:14.438Z,40.87
2023-05-14T12:04:14.367Z,38.87
2023-05-14T12:05:14.330Z,39.75
2023-05-14T12:06:14.325Z,38.85
2023-05-14T12:07:14.330Z,39.25
2023-05-14T12:08:14.324Z,40.35
2023-05-14T12:09:14.322Z,40.27
2023-05-14T12:10:14.331Z,40.75
2023-05-14T12:11:14.323Z,40.65
2023-05-14T12:12:14.322Z,40.85
2023-05-14T12:13:14.316Z,39.37
2023-05-14T12:14:14.351Z,39.65
2023-05-14T12:15:14.335Z,38.87
2023-05-14T12:16:14.362Z,39.39
2023-05-14T12:17:14.311Z,40.49
2023-05-14T12:18:23.478Z,41.01
2023-05-14T12:19:14.347Z,41.01
2023-05-14T12:20:14.316Z,40.51
2023-05-14T12:21:14.314Z,41.13
2023-05-14T12:22:14.303Z,40.83
2023-05-14T12:23:14.300Z,40.33
2023-05-14T12:24:14.302Z,41.15
2023-05-14T12:25:14.323Z,40.45
2023-05-14T12:26:14.295Z,41.35
2023-05-14T12:27:14.296Z,40.85
2023-05-14T12:28:14.294Z,41.05
2023-05-14T12:29:14.285Z,41.35
2023-05-14T12:30:34.290Z,41.55
2023-05-14T12:31:14.326Z,41.96
2023-05-14T12:32:14.279Z,41.23
2023-05-14T12:33:14.333Z,41.25
2023-05-14T12:34:14.282Z,41.25
2023-05-14T12:35:14.281Z,41.25
2023-05-14T12:36:21.836Z,41.23
2023-05-14T12:37:14.270Z,41.23
2023-05-14T12:38:14.279Z,42.03
2023-05-14T12:39:14.273Z,41.03
2023-05-14T12:40:14.378Z,42.03
2023-05-14T12:41:14.276Z,41.43
2023-05-14T12:42:14.262Z,42.44
2023-05-14T12:43:14.262Z,40.83
2023-05-14T12:44:14.261Z,41.31
2023-05-14T12:45:14.252Z,41.41
2023-05-14T12:46:14.254Z,41.11
2023-05-14T12:47:14.277Z,40.11
2023-05-14T12:48:14.383Z,40.91
2023-05-14T12:49:14.252Z,40.79
2023-05-14T12:50:14.257Z,40.81
2023-05-14T12:51:14.250Z,40.01
2023-05-14T12:52:25.691Z,40.11
2023-05-14T12:53:14.240Z,41.21
2023-05-14T12:54:14.238Z,40.79
2023-05-14T12:55:14.243Z,40.07
2023-05-14T12:56:14.254Z,38.99
2023-05-14T12:57:14.233Z,40.09
2023-05-14T12:58:14.229Z,40.37
2023-05-14T12:59:14.231Z,39.57
2023-05-14T13:00:14.519Z,40.97
2023-05-14T13:01:14.325Z,39.75
2023-05-14T13:02:16.725Z,40.85
2023-05-14T13:03:14.275Z,39.33
2023-05-14T13:04:14.243Z,39.43
2023-05-14T13:05:14.242Z,40.43
2023-05-14T13:06:14.221Z,38.45
2023-05-14T13:07:14.214Z,39.85
2023-05-14T13:08:14.218Z,38.25
2023-05-14T13:09:14.222Z,38.83
2023-05-14T13:10:14.228Z,39.93
2023-05-14T13:11:14.235Z,38.51
2023-05-14T13:12:14.211Z,37.81
2023-05-14T13:13:14.207Z,38.51
2023-05-14T13:14:14.201Z,37.03
2023-05-14T13:15:14.579Z,37.93
2023-05-14T13:16:14.210Z,38.03
2023-05-14T13:17:14.203Z,38.71
2023-05-14T13:18:14.202Z,38.42
2023-05-14T13:19:14.293Z,39.09
2023-05-14T13:20:14.194Z,41.27
2023-05-14T13:21:14.205Z,38.85
2023-05-14T13:22:14.195Z,36.98
2023-05-14T13:23:14.194Z,36.98
2023-05-14T13:24:14.193Z,36.38
2023-05-14T13:25:14.192Z,36.31
2023-05-14T13:26:14.211Z,37.11
2023-05-14T13:27:14.197Z,37.83
2023-05-14T13:28:14.190Z,38.83
2023-05-14T13:29:14.204Z,38.63
2023-05-14T13:30:14.199Z,39.11
2023-05-14T13:31:14.225Z,38.91
2023-05-14T13:32:14.203Z,39.72
2023-05-14T13:33:14.369Z,38.01
2023-05-14T13:34:14.195Z,38.01
2023-05-14T13:35:14.189Z,37.33
2023-05-14T13:36:14.182Z,38.23
2023-05-14T13:37:14.201Z,37.65
2023-05-14T13:38:14.176Z,38.33
2023-05-14T13:39:14.421Z,37.25
2023-05-14T13:40:14.185Z,38.25
2023-05-14T13:41:14.176Z,39.05
2023-05-14T13:42:14.173Z,38.57
2023-05-14T13:43:14.321Z,39.07
2023-05-14T13:44:14.172Z,38.17
2023-05-14T13:45:14.175Z,37.95
2023-05-14T13:46:14.190Z,37.16
2023-05-14T13:47:14.196Z,38.59
2023-05-14T13:48:14.226Z,37.77
2023-05-14T13:49:14.182Z,37.98
2023-05-14T13:50:14.234Z,38.18
2023-05-14T13:51:14.170Z,36.98
2023-05-14T13:52:14.161Z,37.38
2023-05-14T13:53:14.161Z,38.57
2023-05-14T13:54:14.197Z,38.09
2023-05-14T13:55:14.156Z,37.16
2023-05-14T13:56:14.158Z,37.38
2023-05-14T13:57:14.163Z,35.28
2023-05-14T13:58:14.159Z,36.50
2023-05-14T13:59:14.149Z,36.38
2023-05-14T14:00:14.150Z,35.86
2023-05-14T14:01:14.164Z,37.48
2023-05-14T14:02:14.146Z,36.36
2023-05-14T14:03:14.146Z,35.36
2023-05-14T14:04:14.143Z,35.96
2023-05-14T14:05:14.199Z,35.96
2023-05-14T14:06:14.144Z,35.88
2023-05-14T14:07:14.141Z,35.96
2023-05-14T14:09:14.139Z,35.38
2023-05-14T14:10:14.131Z,36.98
2023-05-14T14:11:14.132Z,37.16
2023-05-14T14:12:14.162Z,37.07
2023-05-14T14:13:14.133Z,36.65
2023-05-14T14:14:14.127Z,37.15
2023-05-14T14:15:14.124Z,36.93
2023-05-14T14:16:14.289Z,36.94
2023-05-14T14:17:14.121Z,37.35
2023-05-14T14:18:14.119Z,38.53
2023-05-14T14:19:16.038Z,35.63
2023-05-14T14:20:14.116Z,36.73
2023-05-14T14:21:14.117Z,38.93
2023-05-14T14:22:14.112Z,35.83
2023-05-14T14:23:14.126Z,35.25
2023-05-14T14:24:14.124Z,36.93
2023-05-14T14:25:14.388Z,35.25